createdAt,value
2018-09-27T00:02:23.206Z,6.90
2018-09-27T00:04:54.834Z,9.43
2018-09-27T00:07:25.294Z,5.33
2018-09-27T00:09:56.794Z,5.00
2018-09-27T00:12:27.058Z,5.17
2018-09-27T00:14:57.817Z,6.77
2018-09-27T00:17:28.160Z,5.97
2018-09-27T00:19:58.858Z,6.53
2018-09-27T00:22:29.037Z,7.90
2018-09-27T00:24:59.139Z,7.07
2018-09-27T00:27:29.589Z,7.17
2018-09-27T00:30:00.713Z,8.03
2018-09-27T00:32:33.207Z,6.90
2018-09-27T00:35:04.492Z,6.33
2018-09-27T00:37:35.483Z,6.53
2018-09-27T00:40:07.662Z,8.77
2018-09-27T00:42:39.498Z,5.40
2018-09-27T00:45:10.707Z,12.57
2018-09-27T00:47:41.584Z,7.90
2018-09-27T00:50:12.112Z,5.63
2018-09-27T00:52:42.317Z,9.27
2018-09-27T00:55:13.664Z,5.20
2018-09-27T00:57:47.770Z,4.60
2018-09-27T01:00:17.892Z,7.70
2018-09-27T01:02:48.160Z,7.70
2018-09-27T01:05:18.283Z,6.40
2018-09-27T01:07:48.822Z,6.33
2018-09-27T01:10:19.236Z,7.70
2018-09-27T01:12:50.341Z,4.20
2018-09-27T01:15:21.887Z,5.30
2018-09-27T01:17:52.664Z,7.07
2018-09-27T01:20:23.738Z,5.33
2018-09-27T01:22:54.526Z,4.40
2018-09-27T01:25:24.652Z,6.63
2018-09-27T01:27:55.366Z,7.13
2018-09-27T01:30:27.255Z,7.37
2018-09-27T01:32:57.448Z,5.73
2018-09-27T01:35:38.820Z,7.90
2018-09-27T01:38:09.903Z,6.03
2018-09-27T01:40:40.536Z,7.00
2018-09-27T01:43:12.236Z,8.07
2018-09-27T01:45:47.985Z,7.57
2018-09-27T01:48:19.250Z,7.33
2018-09-27T01:50:50.456Z,5.77
2018-09-27T01:53:21.471Z,6.13
2018-09-27T01:55:52.244Z,5.17
2018-09-27T01:58:23.597Z,6.67
2018-09-27T02:00:54.334Z,5.60
2018-09-27T02:03:25.006Z,8.50
2018-09-27T02:05:55.138Z,4.20
2018-09-27T02:08:26.179Z,7.27
2018-09-27T02:10:58.162Z,7.50
2018-09-27T02:13:28.528Z,7.57
2018-09-27T02:15:59.696Z,6.70
2018-09-27T02:18:30.808Z,7.50
2018-09-27T02:21:02.588Z,8.10
2018-09-27T02:23:33.156Z,9.57
2018-09-27T02:26:03.982Z,7.30
2018-09-27T02:28:34.452Z,6.73
2018-09-27T02:31:04.608Z,6.67
2018-09-27T02:33:37.014Z,6.70
2018-09-27T02:36:07.395Z,4.93
2018-09-27T02:38:37.802Z,6.93
2018-09-27T02:41:08.241Z,7.43
2018-09-27T02:43:39.317Z,10.57
2018-09-27T02:46:10.476Z,6.30
2018-09-27T02:48:40.994Z,9.63
2018-09-27T02:51:11.838Z,8.03
2018-09-27T02:53:42.780Z,6.07
2018-09-27T02:56:13.976Z,7.87
2018-09-27T02:58:45.280Z,7.53
2018-09-27T03:01:15.785Z,7.03
2018-09-27T03:03:46.665Z,5.07
2018-09-27T03:06:17.030Z,6.53
2018-09-27T03:08:47.708Z,8.20
2018-09-27T03:11:18.492Z,4.93
2018-09-27T03:13:48.716Z,6.77
2018-09-27T03:16:19.929Z,8.63
2018-09-27T03:18:54.945Z,5.53
2018-09-27T03:21:25.620Z,6.27
2018-09-27T03:23:56.829Z,5.37
2018-09-27T03:26:28.488Z,5.17
2018-09-27T03:28:58.769Z,5.57
2018-09-27T03:31:29.174Z,6.23
2018-09-27T03:33:59.309Z,9.43
2018-09-27T03:36:36.456Z,5.83
2018-09-27T03:39:08.696Z,5.57
2018-09-27T03:41:39.144Z,5.40
2018-09-27T03:44:11.319Z,9.83
2018-09-27T03:46:45.404Z,5.67
2018-09-27T03:49:16.845Z,7.73
2018-09-27T03:51:47.309Z,7.03
2018-09-27T03:54:18.094Z,7.10
2018-09-27T03:56:48.177Z,6.60
2018-09-27T03:59:18.308Z,5.83
2018-09-27T04:01:48.849Z,5.17
2018-09-27T04:04:21.743Z,8.53
2018-09-27T04:06:51.892Z,10.27
2018-09-27T04:09:22.353Z,6.13
2018-09-27T04:11:54.245Z,8.43
2018-09-27T04:14:25.697Z,6.77
2018-09-27T04:16:55.839Z,6.40
2018-09-27T04:19:27.259Z,10.17
2018-09-27T04:21:58.534Z,6.37
2018-09-27T04:24:30.871Z,8.20
2018-09-27T04:27:13.533Z,5.93
2018-09-27T04:29:43.871Z,6.63
2018-09-27T04:32:14.310Z,7.43
2018-09-27T04:34:49.347Z,8.13
2018-09-27T04:37:20.262Z,6.23
2018-09-27T04:39:52.183Z,8.60
2018-09-27T04:42:23.089Z,6.17
2018-09-27T04:44:53.731Z,9.73
2018-09-27T04:47:25.897Z,9.33
2018-09-27T04:49:56.789Z,8.13
2018-09-27T04:52:28.389Z,8.03
2018-09-27T04:54:59.086Z,10.63
2018-09-27T04:57:29.599Z,7.60
2018-09-27T05:00:00.601Z,9.10
2018-09-27T05:02:32.698Z,7.43
2018-09-27T05:05:04.007Z,6.87
2018-09-27T05:07:34.771Z,7.93
2018-09-27T05:10:05.460Z,5.87
2018-09-27T05:12:36.642Z,6.67
2018-09-27T05:15:07.763Z,8.07
2018-09-27T05:17:39.502Z,8.03
2018-09-27T05:20:10.636Z,7.37
2018-09-27T05:22:41.302Z,9.67
2018-09-27T05:25:11.645Z,8.80
2018-09-27T05:27:41.855Z,10.23
2018-09-27T05:30:12.498Z,6.10
2018-09-27T05:32:42.656Z,8.60
2018-09-27T05:35:14.121Z,7.73
2018-09-27T05:37:44.900Z,8.90
2018-09-27T05:40:17.940Z,11.27
2018-09-27T05:42:49.793Z,8.33
2018-09-27T05:45:21.168Z,9.03
2018-09-27T05:47:52.126Z,11.73
2018-09-27T05:50:23.206Z,8.83
2018-09-27T05:52:53.533Z,10.20
2018-09-27T05:55:23.908Z,14.70
2018-09-27T05:57:54.585Z,9.77
2018-09-27T06:00:25.133Z,9.43
2018-09-27T06:02:57.164Z,8.60
2018-09-27T06:05:27.824Z,13.23
2018-09-27T06:08:05.728Z,10.27
2018-09-27T06:10:36.125Z,9.50
2018-09-27T06:13:06.685Z,6.83
2018-09-27T06:15:38.186Z,8.63
2018-09-27T06:18:13.727Z,12.67
2018-09-27T06:20:45.563Z,14.87
2018-09-27T06:23:18.270Z,7.27
2018-09-27T06:25:48.474Z,11.47
2018-09-27T06:28:20.552Z,11.90
2018-09-27T06:30:51.122Z,9.13
2018-09-27T06:33:23.265Z,9.40
2018-09-27T06:35:53.327Z,10.73
2018-09-27T06:38:26.971Z,8.93
2018-09-27T06:40:58.641Z,10.43
2018-09-27T06:43:30.214Z,13.40
2018-09-27T06:46:01.408Z,14.03
2018-09-27T06:48:32.003Z,10.57
2018-09-27T06:51:02.668Z,12.07
2018-09-27T06:53:34.512Z,15.30
2018-09-27T06:56:05.240Z,8.67
2018-09-27T06:58:35.696Z,11.93
2018-09-27T07:01:08.384Z,9.93
2018-09-27T07:03:38.875Z,8.23
2018-09-27T07:06:09.670Z,10.47
2018-09-27T07:08:42.227Z,8.50
2018-09-27T07:11:12.816Z,8.53
2018-09-27T07:13:43.238Z,9.10
2018-09-27T07:16:14.651Z,9.60
2018-09-27T07:18:45.467Z,7.37
2018-09-27T07:21:16.164Z,6.87
2018-09-27T07:23:47.029Z,6.83
2018-09-27T07:26:17.117Z,7.73
2018-09-27T07:28:49.198Z,6.33
2018-09-27T07:31:20.059Z,7.10
2018-09-27T07:33:52.064Z,10.00
2018-09-27T07:36:22.740Z,9.57
2018-09-27T07:38:53.534Z,9.47
2018-09-27T07:41:28.250Z,11.23
2018-09-27T07:43:58.876Z,10.30
2018-09-27T07:46:30.171Z,9.20
2018-09-27T07:49:01.056Z,8.67
2018-09-27T07:51:31.358Z,9.27
2018-09-27T07:54:03.579Z,12.83
2018-09-27T07:56:34.615Z,13.23
2018-09-27T07:59:06.300Z,11.60
2018-09-27T08:01:37.268Z,11.83
2018-09-27T08:04:08.559Z,8.30
2018-09-27T08:06:39.664Z,11.30
2018-09-27T08:09:11.323Z,10.93
2018-09-27T08:11:42.312Z,8.23
2018-09-27T08:14:12.340Z,7.80
2018-09-27T08:16:43.509Z,8.07
2018-09-27T08:19:14.702Z,7.00
2018-09-27T08:21:46.152Z,10.10
2018-09-27T08:24:16.512Z,10.27
2018-09-27T08:26:47.138Z,13.80
2018-09-27T08:29:17.655Z,10.03
2018-09-27T08:31:48.420Z,9.13
2018-09-27T08:34:19.508Z,9.27
2018-09-27T08:36:50.743Z,9.50
2018-09-27T08:39:21.212Z,8.13
2018-09-27T08:41:52.198Z,11.57
2018-09-27T08:44:22.398Z,7.50
2018-09-27T08:46:54.225Z,9.67
2018-09-27T08:49:26.014Z,7.53
2018-09-27T08:51:57.183Z,10.37
2018-09-27T08:54:27.978Z,11.20
2018-09-27T08:56:58.865Z,15.47
2018-09-27T08:59:32.940Z,10.07
2018-09-27T09:02:03.215Z,12.17
2018-09-27T09:04:34.047Z,9.83
2018-09-27T09:07:05.477Z,12.23
2018-09-27T09:09:39.947Z,12.57
2018-09-27T09:12:10.386Z,13.83
2018-09-27T09:14:41.331Z,11.43
2018-09-27T09:17:11.647Z,11.47
2018-09-27T09:19:57.480Z,10.73
2018-09-27T09:22:28.744Z,11.03
2018-09-27T09:24:59.601Z,14.43
2018-09-27T09:27:30.647Z,15.10
2018-09-27T09:30:01.092Z,9.63
2018-09-27T09:32:31.798Z,12.33
2018-09-27T09:35:03.394Z,11.73
2018-09-27T09:37:33.734Z,12.37
2018-09-27T09:40:04.513Z,9.37
2018-09-27T09:42:35.429Z,11.33
2018-09-27T09:45:06.643Z,8.30
2018-09-27T09:47:37.453Z,10.80
2018-09-27T09:50:07.628Z,6.27
2018-09-27T09:52:39.213Z,8.87
2018-09-27T09:55:09.585Z,12.23
2018-09-27T09:57:40.490Z,9.50
2018-09-27T10:00:11.093Z,9.60
2018-09-27T10:02:41.713Z,9.23
2018-09-27T10:05:12.964Z,10.90
2018-09-27T10:07:43.854Z,7.67
2018-09-27T10:10:14.952Z,9.23
2018-09-27T10:12:45.076Z,7.27
2018-09-27T10:15:21.978Z,8.37
2018-09-27T10:17:53.991Z,6.60
2018-09-27T10:20:26.745Z,6.90
2018-09-27T10:22:58.345Z,7.60
2018-09-27T10:25:30.370Z,9.97
2018-09-27T10:28:02.076Z,8.30
2018-09-27T10:30:35.874Z,7.42
2018-09-27T10:33:06.738Z,6.30
2018-09-27T10:35:38.305Z,8.68
2018-09-27T10:38:09.290Z,8.15
2018-09-27T10:40:39.826Z,10.28
2018-09-27T10:43:10.767Z,8.55
2018-09-27T10:45:41.746Z,8.98
2018-09-27T10:48:12.756Z,7.62
2018-09-27T10:50:44.086Z,6.60
2018-09-27T10:53:14.462Z,12.55
2018-09-27T10:55:46.213Z,7.80
2018-09-27T10:58:16.576Z,7.40
2018-09-27T11:00:48.060Z,7.80
2018-09-27T11:03:19.456Z,4.37
2018-09-27T11:05:50.166Z,5.22
2018-09-27T11:08:21.542Z,7.17
2018-09-27T11:10:51.823Z,5.90
2018-09-27T11:13:23.864Z,6.25
2018-09-27T11:15:54.119Z,8.48
2018-09-27T11:18:24.466Z,5.40
2018-09-27T11:20:55.434Z,4.30
2018-09-27T11:23:26.760Z,5.00
2018-09-27T11:26:01.312Z,5.60
2018-09-27T11:28:38.220Z,5.08
2018-09-27T11:33:16.210Z,6.25
2018-09-27T11:35:47.590Z,4.10
2018-09-27T11:38:19.971Z,6.78
2018-09-27T11:40:51.031Z,5.05
2018-09-27T11:43:23.440Z,7.42
2018-09-27T11:45:54.579Z,4.87
2018-09-27T11:48:28.567Z,5.03
2018-09-27T11:50:59.903Z,4.75
2018-09-27T11:53:32.018Z,5.47
2018-09-27T11:56:03.331Z,5.55
2018-09-27T11:58:33.545Z,4.90
2018-09-27T12:01:05.063Z,4.30
2018-09-27T12:03:36.307Z,5.37
2018-09-27T12:06:06.810Z,7.72
2018-09-27T12:08:37.968Z,5.75
2018-09-27T12:11:09.156Z,6.40
2018-09-27T12:13:43.024Z,4.85
2018-09-27T12:16:14.323Z,6.00
2018-09-27T12:18:45.279Z,5.92
2018-09-27T12:21:15.506Z,4.00
2018-09-27T12:23:45.774Z,6.55
2018-09-27T12:26:16.502Z,4.17
2018-09-27T12:28:47.461Z,4.80
2018-09-27T12:31:20.102Z,4.90
2018-09-27T12:33:50.443Z,5.90
2018-09-27T12:36:21.773Z,5.70
2018-09-27T12:38:53.313Z,3.87
2018-09-27T12:41:25.087Z,9.50
2018-09-27T12:43:55.337Z,4.10
2018-09-27T12:46:25.598Z,4.65
2018-09-27T12:48:57.792Z,4.28
2018-09-27T12:51:36.237Z,5.08
2018-09-27T12:54:07.233Z,4.35
2018-09-27T12:56:37.714Z,5.58
2018-09-27T12:59:09.671Z,3.20
2018-09-27T13:01:40.930Z,4.87
2018-09-27T13:04:11.693Z,2.98
2018-09-27T13:06:42.584Z,2.52
2018-09-27T13:09:13.076Z,2.65
2018-09-27T13:11:43.986Z,3.83
2018-09-27T13:14:14.241Z,5.25
2018-09-27T13:16:44.923Z,6.03
2018-09-27T13:19:15.387Z,3.30
2018-09-27T13:21:47.057Z,6.12
2018-09-27T13:24:19.054Z,6.53
2018-09-27T13:26:49.986Z,6.03
2018-09-27T13:29:20.492Z,4.75
2018-09-27T13:31:58.622Z,2.80
2018-09-27T13:34:29.752Z,3.50
2018-09-27T13:37:00.289Z,5.90
2018-09-27T13:39:31.283Z,4.25
2018-09-27T13:42:08.728Z,3.35
2018-09-27T13:44:39.022Z,2.92
2018-09-27T13:47:10.144Z,3.62
2018-09-27T13:49:40.425Z,3.92
2018-09-27T13:52:12.096Z,3.67
2018-09-27T13:54:42.309Z,3.00
2018-09-27T13:57:13.595Z,2.08
2018-09-27T13:59:44.490Z,5.83
2018-09-27T14:02:15.635Z,1.98
2018-09-27T14:04:48.148Z,1.92
2018-09-27T14:07:19.346Z,2.02
2018-09-27T14:09:51.075Z,1.70
2018-09-27T14:12:22.943Z,10.30
2018-09-27T14:14:53.980Z,2.45
2018-09-27T14:17:25.238Z,3.50
2018-09-27T14:19:55.996Z,5.10
2018-09-27T14:22:27.813Z,3.45
2018-09-27T14:24:59.113Z,2.85
2018-09-27T14:27:30.374Z,4.50
2018-09-27T14:30:06.262Z,2.77
2018-09-27T14:32:36.622Z,1.62
2018-09-27T14:35:07.362Z,1.70
2018-09-27T14:37:39.229Z,3.02
2018-09-27T14:40:09.813Z,2.80
2018-09-27T14:42:41.244Z,3.90
2018-09-27T14:45:12.928Z,4.08
2018-09-27T14:47:44.513Z,3.55
2018-09-27T14:50:15.727Z,3.45
2018-09-27T14:52:47.872Z,10.58
2018-09-27T14:55:18.119Z,5.53
2018-09-27T14:57:51.349Z,2.90
2018-09-27T15:00:21.764Z,3.17
2018-09-27T15:02:52.342Z,1.87
2018-09-27T15:05:23.639Z,1.95
2018-09-27T15:07:55.396Z,4.83
2018-09-27T15:10:26.679Z,1.75
2018-09-27T15:12:57.877Z,2.15
2018-09-27T15:15:28.245Z,2.10
2018-09-27T15:17:58.574Z,4.00
2018-09-27T15:20:28.780Z,4.30
2018-09-27T15:22:59.180Z,1.98
2018-09-27T15:25:30.382Z,2.90
2018-09-27T15:28:00.872Z,3.50
2018-09-27T15:30:31.008Z,2.72
2018-09-27T15:33:01.311Z,3.37
2018-09-27T15:35:32.451Z,2.67
2018-09-27T15:38:03.128Z,3.42
2018-09-27T15:40:34.742Z,3.70
2018-09-27T15:43:05.311Z,2.85
2018-09-27T15:45:36.284Z,4.05
2018-09-27T15:48:09.095Z,3.98
2018-09-27T15:50:41.272Z,3.37
2018-09-27T15:53:11.462Z,5.35
2018-09-27T15:55:43.325Z,5.15
2018-09-27T15:58:15.734Z,5.42
2018-09-27T16:00:46.904Z,3.35
2018-09-27T16:03:18.247Z,4.80
2018-09-27T16:05:52.576Z,3.98
2018-09-27T16:08:24.058Z,3.65
2018-09-27T16:10:54.565Z,3.75
2018-09-27T16:13:26.390Z,5.78
2018-09-27T16:15:57.241Z,4.92
2018-09-27T16:18:28.444Z,8.68
2018-09-27T16:20:59.822Z,5.12
2018-09-27T16:23:29.977Z,6.22
2018-09-27T16:26:00.350Z,8.80
2018-09-27T16:28:33.227Z,5.65
2018-09-27T16:31:04.478Z,6.43
2018-09-27T16:33:34.982Z,5.07
2018-09-27T16:36:06.631Z,5.00
2018-09-27T16:38:38.638Z,8.80
2018-09-27T16:41:10.453Z,8.07
2018-09-27T16:43:41.865Z,7.33
2018-09-27T16:46:12.981Z,7.87
2018-09-27T16:48:44.737Z,9.50
2018-09-27T16:51:18.081Z,10.67
2018-09-27T16:53:48.719Z,10.70
2018-09-27T16:56:20.633Z,5.87
2018-09-27T16:58:51.354Z,6.73
2018-09-27T17:01:22.710Z,4.23
2018-09-27T17:03:59.653Z,5.17
2018-09-27T17:06:30.310Z,6.97
2018-09-27T17:09:00.784Z,5.53
2018-09-27T17:11:31.794Z,6.07
2018-09-27T17:14:02.499Z,5.97
2018-09-27T17:16:33.038Z,6.50
2018-09-27T17:19:03.559Z,9.20
2018-09-27T17:21:35.197Z,9.17
2018-09-27T17:24:08.422Z,7.07
2018-09-27T17:26:42.057Z,19.67
2018-09-27T17:29:12.686Z,25.10
2018-09-27T17:31:43.130Z,10.50
2018-09-27T17:34:15.911Z,10.03
2018-09-27T17:36:47.645Z,7.87
2018-09-27T17:39:19.288Z,7.47
2018-09-27T17:41:50.308Z,3.60
2018-09-27T17:44:21.967Z,6.67
2018-09-27T17:46:52.855Z,6.83
2018-09-27T17:49:24.294Z,6.33
2018-09-27T17:51:54.840Z,5.80
2018-09-27T17:54:27.439Z,5.67
2018-09-27T17:56:57.785Z,7.30
2018-09-27T17:59:28.388Z,6.87
2018-09-27T18:01:59.079Z,8.37
2018-09-27T18:04:29.828Z,5.20
2018-09-27T18:07:00.445Z,11.30
2018-09-27T18:09:32.075Z,9.77
2018-09-27T18:12:04.156Z,9.63
2018-09-27T18:14:35.057Z,9.00
2018-09-27T18:17:06.424Z,7.00
2018-09-27T18:19:36.831Z,6.03
2018-09-27T18:22:10.237Z,8.00
2018-09-27T18:24:44.432Z,11.03
2018-09-27T18:27:16.672Z,8.53
2018-09-27T18:29:52.912Z,9.40
2018-09-27T18:32:24.543Z,10.23
2018-09-27T18:34:55.794Z,7.90
2018-09-27T18:37:26.465Z,12.20
2018-09-27T18:39:56.808Z,12.53
2018-09-27T18:42:28.798Z,9.37
2018-09-27T18:45:00.170Z,7.07
2018-09-27T18:47:30.615Z,9.80
2018-09-27T18:50:01.136Z,6.73
2018-09-27T18:52:31.765Z,8.47
2018-09-27T18:55:02.165Z,10.40
2018-09-27T18:57:33.310Z,7.10
2018-09-27T19:00:04.393Z,6.57
2018-09-27T19:02:36.488Z,11.13
2018-09-27T19:05:07.247Z,10.73
2018-09-27T19:07:38.255Z,12.57
2018-09-27T19:10:09.049Z,13.33
2018-09-27T19:12:39.366Z,9.27
2018-09-27T19:15:11.349Z,11.10
2018-09-27T19:17:42.895Z,9.73
2018-09-27T19:20:13.782Z,5.37
2018-09-27T19:22:45.442Z,7.80
2018-09-27T19:25:16.178Z,7.50
2018-09-27T19:27:51.340Z,13.37
2018-09-27T19:30:22.249Z,5.83
2018-09-27T19:32:53.428Z,10.47
2018-09-27T19:35:23.758Z,8.50
2018-09-27T19:37:57.859Z,7.10
2018-09-27T19:40:29.761Z,7.37
2018-09-27T19:42:59.952Z,7.40
2018-09-27T19:45:32.034Z,4.63
2018-09-27T19:48:03.637Z,4.47
2018-09-27T19:50:34.735Z,7.50
2018-09-27T19:53:06.270Z,6.27
2018-09-27T19:55:37.124Z,6.50
2018-09-27T19:58:11.340Z,4.50
2018-09-27T20:00:43.456Z,5.10
2018-09-27T20:03:13.769Z,5.13
2018-09-27T20:05:45.200Z,5.57
2018-09-27T20:08:17.688Z,7.10
2018-09-27T20:10:48.738Z,7.97
2018-09-27T20:13:19.381Z,9.77
2018-09-27T20:15:49.769Z,7.10
2018-09-27T20:18:20.908Z,5.93
2018-09-27T20:20:52.408Z,8.83
2018-09-27T20:23:23.217Z,9.77
2018-09-27T20:25:53.385Z,7.97
2018-09-27T20:28:25.045Z,13.60
2018-09-27T20:30:55.736Z,10.47
2018-09-27T20:33:26.413Z,9.70
2018-09-27T20:35:58.383Z,8.03
2018-09-27T20:38:29.098Z,13.50
2018-09-27T20:41:00.848Z,10.20
2018-09-27T20:43:31.102Z,9.33
2018-09-27T20:46:01.432Z,7.53
2018-09-27T20:48:32.254Z,9.40
2018-09-27T20:51:03.317Z,8.97
2018-09-27T20:53:34.437Z,8.50
2018-09-27T20:56:05.748Z,6.63
2018-09-27T20:58:35.927Z,6.90
2018-09-27T21:01:07.662Z,9.43
2018-09-27T21:03:37.884Z,10.33
2018-09-27T21:06:08.269Z,6.07
2018-09-27T21:08:38.827Z,9.27
2018-09-27T21:11:09.659Z,8.23
2018-09-27T21:13:41.056Z,10.47
2018-09-27T21:16:11.648Z,9.73
2018-09-27T21:18:43.300Z,9.87
2018-09-27T21:21:14.504Z,8.97
2018-09-27T21:23:45.713Z,9.40
2018-09-27T21:26:16.153Z,14.80
2018-09-27T21:28:48.145Z,13.87
2018-09-27T21:31:18.212Z,10.00
2018-09-27T21:33:50.142Z,9.13
2018-09-27T21:36:22.486Z,10.30
2018-09-27T21:38:54.045Z,11.03
2018-09-27T21:41:25.158Z,8.60
2018-09-27T21:43:55.557Z,7.03
2018-09-27T21:46:26.481Z,8.80
2018-09-27T21:48:56.784Z,12.20
2018-09-27T21:51:27.718Z,6.50
2018-09-27T21:53:58.663Z,9.67
2018-09-27T21:56:29.366Z,12.17
2018-09-27T21:58:59.509Z,7.67
2018-09-27T22:01:30.262Z,9.63
2018-09-27T22:04:01.597Z,7.37
2018-09-27T22:06:32.054Z,8.77
2018-09-27T22:09:02.397Z,11.87
2018-09-27T22:11:33.615Z,7.50
2018-09-27T22:14:04.801Z,9.47
2018-09-27T22:16:36.487Z,10.00
2018-09-27T22:19:06.572Z,10.03
2018-09-27T22:21:36.713Z,8.97
2018-09-27T22:24:07.308Z,10.87
2018-09-27T22:26:38.711Z,10.53
2018-09-27T22:29:09.100Z,8.50
2018-09-27T22:31:39.513Z,8.03
2018-09-27T22:34:13.254Z,8.00
2018-09-27T22:36:44.295Z,8.60
2018-09-27T22:39:14.377Z,8.10
2018-09-27T22:41:46.439Z,6.33
2018-09-27T22:44:17.839Z,9.90
2018-09-27T22:46:48.249Z,9.47
2018-09-27T22:49:19.157Z,10.93
2018-09-27T22:51:50.525Z,9.30
2018-09-27T22:54:21.707Z,8.10
2018-09-27T22:56:52.921Z,17.17
2018-09-27T22:59:24.437Z,12.10
2018-09-27T23:01:56.356Z,6.73
2018-09-27T23:04:27.618Z,6.53
2018-09-27T23:06:57.695Z,9.63
2018-09-27T23:09:27.706Z,8.83
2018-09-27T23:11:57.778Z,7.10
2018-09-27T23:14:27.842Z,7.23
2018-09-27T23:16:57.921Z,6.47
2018-09-27T23:19:28.009Z,7.80
2018-09-27T23:21:58.059Z,7.80
2018-09-27T23:24:28.155Z,7.27
2018-09-27T23:26:58.219Z,8.87
2018-09-27T23:29:28.315Z,7.57
2018-09-27T23:31:58.393Z,6.97
2018-09-27T23:34:28.395Z,7.10
2018-09-27T23:36:58.416Z,6.27
2018-09-27T23:39:28.512Z,6.20
2018-09-27T23:41:58.523Z,7.60
2018-09-27T23:44:28.580Z,7.27
2018-09-27T23:46:58.605Z,5.90
2018-09-27T23:49:28.598Z,7.47
2018-09-27T23:51:58.970Z,9.20
2018-09-27T23:54:28.990Z,8.20
2018-09-27T23:56:59.016Z,10.83
2018-09-27T23:59:29.066Z,7.43
